Time;durP1;ratioP1;P1;durP2;ratioP2;P2;SDS_P1;SDS_P2;PMS_P1;PMS_P2;Temp;Humidity;BMP_temperature;BMP_pressure;BME280_temperature;BME280_humidity;BME280_pressure;Samples;Min_cycle;Max_cycle;Signal;HPM_P1;HPM_P2
2021/10/28 00:13:13;;;;;;;116.73;62.53;;;;;;;4.94;71.05;101232.59;1981822;89;28511;-61
2021/10/28 00:16:23;;;;;;;108.47;59.58;;;;;;;4.90;71.13;101231.30;1976979;89;32154;-61
2021/10/28 00:19:21;;;;;;;103.32;56.08;;;;;;;4.85;70.98;101227.37;1977156;90;34286;-60
2021/10/28 00:22:25;;;;;;;106.40;56.58;;;;;;;4.82;70.91;101232.70;1976944;90;31526;-61
2021/10/28 00:25:26;;;;;;;115.55;61.40;;;;;;;4.80;71.14;101234.53;1977396;90;27714;-61
2021/10/28 00:28:29;;;;;;;111.25;59.40;;;;;;;4.76;71.56;101233.66;1976399;90;30824;-61
2021/10/28 00:31:33;;;;;;;107.17;59.30;;;;;;;4.74;71.33;101231.92;1977132;90;31852;-61
2021/10/28 00:34:35;;;;;;;103.57;57.23;;;;;;;4.74;71.24;101234.12;1982957;89;32774;-61
2021/10/28 00:37:37;;;;;;;105.43;57.05;;;;;;;4.75;71.17;101236.34;2013374;87;30656;-60
2021/10/28 00:40:39;;;;;;;102.40;59.23;;;;;;;4.73;71.15;101231.48;2039543;86;27699;-61
2021/10/28 00:43:47;;;;;;;103.00;55.88;;;;;;;4.70;71.13;101229.76;2049310;86;29915;-62
2021/10/28 00:46:49;;;;;;;101.00;57.48;;;;;;;4.67;71.04;101235.09;2049404;86;30411;-61
2021/10/28 00:49:51;;;;;;;101.12;55.58;;;;;;;4.64;71.01;101229.34;2063214;85;33367;-62
2021/10/28 00:52:52;;;;;;;102.90;56.48;;;;;;;4.61;70.95;101225.85;2069038;85;30322;-61
2021/10/28 00:55:54;;;;;;;100.33;54.65;;;;;;;4.55;70.90;101225.00;2058520;86;27605;-61
2021/10/28 00:58:56;;;;;;;98.22;54.60;;;;;;;4.54;70.91;101225.94;2057986;86;29937;-61
2021/10/28 01:01:58;;;;;;;96.25;54.80;;;;;;;4.51;70.89;101221.97;2061553;85;31457;-62
2021/10/28 01:05:01;;;;;;;93.52;53.75;;;;;;;4.50;70.90;101218.89;2061640;85;33056;-61
2021/10/28 01:08:04;;;;;;;93.22;53.92;;;;;;;4.50;70.92;101220.64;2060064;86;30207;-61
2021/10/28 01:11:07;;;;;;;95.42;53.42;;;;;;;4.50;70.90;101220.64;2060065;86;27805;-62
2021/10/28 01:14:09;;;;;;;113.95;63.05;;;;;;;4.49;70.81;101215.80;2063111;84;28809;-60
2021/10/28 01:17:11;;;;;;;106.78;56.63;;;;;;;4.47;71.20;101218.05;2062890;85;32188;-61
2021/10/28 01:20:13;;;;;;;105.67;57.10;;;;;;;4.45;70.90;101219.83;2061703;84;33472;-61
2021/10/28 01:23:16;;;;;;;112.62;59.27;;;;;;;4.40;70.84;101218.09;2064208;86;29672;-61
2021/10/28 01:26:19;;;;;;;104.17;56.92;;;;;;;4.37;70.79;101216.78;2064555;86;27735;-62
2021/10/28 01:29:21;;;;;;;102.02;53.30;;;;;;;4.33;70.78;101212.39;2063756;86;29900;-61
2021/10/28 01:32:23;;;;;;;104.03;53.25;;;;;;;4.30;70.77;101210.23;2026796;87;32079;-61
2021/10/28 01:35:28;;;;;;;96.55;51.60;;;;;;;4.25;70.90;101211.60;2054262;86;34107;-62
2021/10/28 01:38:30;;;;;;;99.45;54.88;;;;;;;4.23;70.96;101210.27;2056739;86;30167;-62
2021/10/28 01:41:32;;;;;;;102.75;56.37;;;;;;;4.22;71.03;101212.95;2034320;87;27704;-62
2021/10/28 01:44:35;;;;;;;107.03;57.48;;;;;;;4.21;71.02;101206.78;2036260;87;29862;-62
2021/10/28 01:47:36;;;;;;;105.65;59.85;;;;;;;4.21;71.13;101212.52;2069641;85;31769;-62
2021/10/28 01:50:40;;;;;;;102.50;57.90;;;;;;;4.19;71.47;101212.53;2060770;86;33921;-63
2021/10/28 01:53:43;;;;;;;102.10;59.98;;;;;;;4.16;71.37;101211.23;2065486;86;30279;-62
2021/10/28 01:56:45;;;;;;;108.27;58.08;;;;;;;4.14;71.59;101213.02;2063940;86;28161;-62
2021/10/28 01:59:48;;;;;;;109.72;58.83;;;;;;;4.12;71.44;101209.95;2059308;85;29540;-62
2021/10/28 02:02:51;;;;;;;106.90;57.05;;;;;;;4.10;71.47;101210.84;2047976;86;31602;-62
2021/10/28 02:05:53;;;;;;;103.40;55.25;;;;;;;4.06;71.52;101209.52;2024199;87;34139;-61
2021/10/28 02:08:55;;;;;;;97.92;53.83;;;;;;;4.04;71.49;101216.64;2057688;86;29155;-62
2021/10/28 02:11:57;;;;;;;98.42;55.70;;;;;;;4.04;71.70;101213.53;2057647;86;27671;-62
2021/10/28 02:15:00;;;;;;;105.85;58.00;;;;;;;4.03;72.09;101222.83;2057648;86;28515;-62
2021/10/28 02:18:02;;;;;;;101.07;56.15;;;;;;;4.05;71.91;101219.73;2058429;86;32190;-62
2021/10/28 02:21:03;;;;;;;107.45;57.20;;;;;;;4.06;71.89;101216.16;2057645;86;34098;-62
2021/10/28 02:24:05;;;;;;;95.38;52.88;;;;;;;4.08;71.81;101214.38;2057992;86;30482;-62
2021/10/28 02:27:07;;;;;;;94.35;56.13;;;;;;;4.06;72.29;101207.77;2057646;86;28125;-62
2021/10/28 02:30:12;;;;;;;92.53;51.37;;;;;;;4.04;72.57;101206.03;2057967;86;30015;-62
2021/10/28 02:33:14;;;;;;;86.40;50.35;;;;;;;4.02;72.43;101210.47;2057999;86;31029;-62
2021/10/28 02:36:17;;;;;;;89.10;50.03;;;;;;;4.02;72.49;101212.66;2058432;86;33789;-62
2021/10/28 02:39:19;;;;;;;95.20;53.00;;;;;;;4.01;72.64;101205.59;2057885;86;29519;-62
2021/10/28 02:42:21;;;;;;;91.50;52.13;;;;;;;4.04;72.82;101206.90;2057756;86;27708;-62
2021/10/28 02:45:23;;;;;;;89.92;51.50;;;;;;;4.03;72.74;101207.78;2081926;84;28650;-62
2021/10/28 02:48:25;;;;;;;88.33;49.18;;;;;;;4.04;72.65;101206.90;2096987;84;31689;-62
2021/10/28 02:51:27;;;;;;;86.72;51.92;;;;;;;4.04;72.74;101200.27;2102656;84;33382;-61
2021/10/28 02:54:29;;;;;;;80.75;48.35;;;;;;;4.03;72.55;101205.59;2102839;84;29743;-62
2021/10/28 02:57:31;;;;;;;84.87;48.90;;;;;;;4.02;72.49;101202.05;2102815;84;27680;-62
2021/10/28 03:00:33;;;;;;;78.52;46.70;;;;;;;4.01;72.61;101203.40;2102974;84;28464;-61
2021/10/28 03:03:38;;;;;;;81.50;45.30;;;;;;;4.00;72.56;101209.13;2102527;84;32239;-61
2021/10/28 03:06:41;;;;;;;77.00;42.33;;;;;;;3.96;72.39;101202.12;2078725;84;34221;-61
2021/10/28 03:09:43;;;;;;;78.40;43.92;;;;;;;3.94;72.38;101208.73;2060252;85;29047;-61
2021/10/28 03:12:45;;;;;;;76.07;43.87;;;;;;;3.93;72.52;101209.63;2061874;85;27865;-61
2021/10/28 03:15:49;;;;;;;72.60;43.92;;;;;;;3.92;72.27;101199.91;2035275;87;28729;-61
2021/10/28 03:28:39;;;;;;;91.95;50.75;;;;;;;3.87;72.25;101204.82;2042608;86;27707;-61
2021/10/28 03:31:40;;;;;;;77.03;47.17;;;;;;;3.83;72.54;101202.64;2021249;87;28579;-61
2021/10/28 03:34:43;;;;;;;74.22;43.35;;;;;;;3.80;72.38;101203.56;2026016;87;32181;-61
2021/10/28 03:37:51;;;;;;;74.12;39.67;;;;;;;3.75;72.41;101206.67;2027400;86;34160;-61
2021/10/28 04:00:42;;;;;;;91.35;52.80;;;;;;;3.74;73.27;101211.54;2059959;86;27765;-63
2021/10/28 04:16:54;;;;;;;94.92;55.67;;;;;;;3.60;73.33;101205.45;2055685;86;27702;-61
2021/10/28 04:19:49;;;;;;;83.87;52.13;;;;;;;3.58;73.46;101206.77;2054686;86;29924;-61
2021/10/28 04:29:25;;;;;;;85.20;47.45;;;;;;;3.56;73.69;101204.56;2066389;86;30496;-61
2021/10/28 04:32:28;;;;;;;72.82;44.18;;;;;;;3.54;73.69;101202.40;2068911;86;27699;-61
2021/10/28 04:35:30;;;;;;;73.42;42.65;;;;;;;3.53;73.52;101199.73;2068590;86;28671;-61
2021/10/28 04:38:32;;;;;;;74.00;44.58;;;;;;;3.51;73.82;101207.71;2068393;86;32212;-60
2021/10/28 04:41:36;;;;;;;77.03;43.80;;;;;;;3.50;73.95;101212.11;2030947;87;32915;-60
2021/10/28 04:44:40;;;;;;;108.80;55.88;;;;;;;3.52;73.92;101210.80;2031044;87;29418;-60
2021/10/28 04:47:42;;;;;;;98.07;53.87;;;;;;;3.54;73.92;101208.12;2028339;87;27840;-61
2021/10/28 04:50:45;;;;;;;96.05;51.70;;;;;;;3.54;73.99;101212.09;2060832;86;30155;-60
2021/10/28 04:53:47;;;;;;;98.05;56.08;;;;;;;3.50;73.81;101216.08;2059695;86;31447;-61
2021/10/28 04:56:49;;;;;;;120.30;69.03;;;;;;;3.48;74.03;101211.23;2055871;86;33589;-60
2021/10/28 04:59:51;;;;;;;112.77;65.35;;;;;;;3.42;74.01;101213.94;2056414;85;30482;-59
2021/10/28 05:02:52;;;;;;;89.75;51.53;;;;;;;3.36;73.96;101207.80;2056043;86;27617;-61
2021/10/28 05:05:54;;;;;;;76.42;44.20;;;;;;;3.29;74.03;101212.24;2055927;85;29936;-61
2021/10/28 05:08:56;;;;;;;79.72;45.50;;;;;;;3.31;74.00;101207.83;2055041;86;32166;-61
2021/10/28 05:11:58;;;;;;;74.92;44.10;;;;;;;3.33;74.09;101212.21;2054983;85;34325;-61
2021/10/28 05:14:59;;;;;;;84.58;48.13;;;;;;;3.37;73.88;101206.45;2055616;86;29355;-61
2021/10/28 05:18:01;;;;;;;81.40;46.68;;;;;;;3.39;73.86;101201.16;2056362;85;27543;-61
2021/10/28 05:21:03;;;;;;;76.60;44.80;;;;;;;3.39;73.89;101198.52;2054598;86;29542;-62
2021/10/28 05:24:05;;;;;;;80.55;45.85;;;;;;;3.40;73.59;101194.52;2030151;86;31999;-61
2021/10/28 05:27:07;;;;;;;76.70;44.38;;;;;;;3.42;73.45;101199.80;2049208;86;33355;-61
2021/10/28 05:30:11;;;;;;;78.57;45.95;;;;;;;3.40;73.38;101201.14;2049956;85;30160;-60
2021/10/28 05:33:13;;;;;;;78.25;45.70;;;;;;;3.39;73.27;101201.16;2054313;85;27706;-60
2021/10/28 05:36:15;;;;;;;86.87;46.83;;;;;;;3.37;73.36;101198.96;2055841;85;29926;-59
2021/10/28 05:39:17;;;;;;;119.72;58.85;;;;;;;3.34;73.32;101203.81;2052313;86;30781;-61
2021/10/28 05:42:19;;;;;;;111.85;55.52;;;;;;;3.30;73.61;101211.36;2049987;86;34177;-61
2021/10/28 05:45:25;;;;;;;105.17;53.73;;;;;;;3.29;73.67;101212.24;2050936;85;30610;-60
2021/10/28 05:48:27;;;;;;;102.17;52.08;;;;;;;3.31;73.73;101205.17;2051331;86;27687;-63
2021/10/28 05:51:29;;;;;;;111.03;54.45;;;;;;;3.35;73.86;101202.92;2060894;86;29926;-61
2021/10/28 05:54:31;;;;;;;105.27;53.83;;;;;;;3.40;73.88;101209.52;2057731;84;31659;-60
2021/10/28 05:57:33;;;;;;;99.47;52.50;;;;;;;3.43;74.29;101206.42;2060063;84;34204;-60
2021/10/28 06:00:35;;;;;;;93.30;50.73;;;;;;;3.46;74.79;101207.74;2061416;84;30187;-60
2021/10/28 06:03:38;;;;;;;89.30;48.90;;;;;;;3.49;74.62;101205.05;2061412;85;27669;-60
2021/10/28 06:06:40;;;;;;;75.57;43.02;;;;;;;3.56;74.58;101207.67;2061565;86;28488;-60
2021/10/28 06:09:42;;;;;;;106.70;61.25;;;;;;;3.64;74.48;101218.66;2060985;84;31858;-61
2021/10/28 06:12:49;;;;;;;74.92;43.40;;;;;;;3.73;74.80;101213.75;2060412;86;34358;-61
2021/10/28 06:15:53;;;;;;;70.70;41.65;;;;;;;3.82;74.81;101218.54;2061873;86;29332;-61
2021/10/28 06:18:55;;;;;;;74.85;40.75;;;;;;;3.95;74.81;101222.89;2061715;85;27675;-61
2021/10/28 06:21:57;;;;;;;67.75;41.15;;;;;;;4.09;75.00;101223.66;2068951;86;29867;-61
2021/10/28 06:24:59;;;;;;;73.92;43.38;;;;;;;4.20;74.89;101224.01;2069672;86;32273;-61
2021/10/28 06:28:03;;;;;;;75.70;45.75;;;;;;;4.32;74.96;101223.89;2060085;86;34303;-60
2021/10/28 06:31:05;;;;;;;76.87;43.30;;;;;;;4.43;75.21;101228.25;2054516;86;29411;-60
2021/10/28 06:34:17;;;;;;;73.20;45.43;;;;;;;4.57;75.03;101234.30;2060105;84;27893;-61
2021/10/28 06:37:11;;;;;;;78.57;46.15;;;;;;;4.74;74.95;101231.46;2060770;86;28676;-60
2021/10/28 06:40:15;;;;;;;71.97;44.13;;;;;;;4.87;74.79;101233.55;2057443;86;31544;-60
2021/10/28 06:43:17;;;;;;;70.20;41.98;;;;;;;5.01;74.72;101224.97;2057870;86;32953;-61
2021/10/28 06:46:19;;;;;;;68.10;41.55;;;;;;;5.10;74.60;101227.11;2061078;84;30475;-61
2021/10/28 06:49:22;;;;;;;71.02;41.60;;;;;;;5.23;74.57;101231.80;2066552;84;27608;-61
2021/10/28 06:52:33;;;;;;;65.80;40.40;;;;;;;5.35;74.58;101235.66;2029145;87;28696;-62
2021/10/28 06:55:38;;;;;;;69.50;42.08;;;;;;;5.48;74.55;101230.59;2027525;87;31130;-60
2021/10/28 07:05:14;;;;;;;75.05;44.73;;;;;;;5.85;74.49;101225.20;1978293;89;27683;-61
2021/10/28 07:08:16;;;;;;;76.50;45.78;;;;;;;6.11;74.54;101226.63;2025939;87;29906;-61
2021/10/28 07:11:24;;;;;;;77.15;44.18;;;;;;;6.43;74.51;101219.87;2026213;87;31750;-61
2021/10/28 07:14:22;;;;;;;70.87;43.63;;;;;;;6.84;74.47;101215.56;2025931;87;34460;-61
2021/10/28 07:57:23;;;;;;;52.38;36.17;;;;;;;11.39;68.87;101194.58;1968349;87;29530;-61
2021/10/28 08:19:40;;;;;;;126.70;63.83;;;;;;;11.82;67.34;101181.27;2061323;86;33768;-60
2021/10/28 08:22:24;;;;;;;62.50;41.80;;;;;;;11.80;67.17;101177.32;2021949;86;30137;-60
2021/10/28 08:28:49;;;;;;;58.23;38.35;;;;;;;11.69;67.36;101172.38;2027791;86;29906;-60
2021/10/28 08:31:51;;;;;;;55.80;35.48;;;;;;;11.65;67.01;101169.41;2025697;86;31629;-62
2021/10/28 08:34:54;;;;;;;;;;;;;;;11.64;67.05;101169.00;2026396;87;32982;-61
2021/10/28 08:37:58;;;;;;;51.98;34.50;;;;;;;11.63;67.27;101160.53;2023618;86;30525;-61
2021/10/28 08:41:00;;;;;;;50.80;35.68;;;;;;;11.69;67.28;101165.67;2026079;86;28194;-61
2021/10/28 08:44:06;;;;;;;55.70;36.60;;;;;;;11.70;67.21;101164.73;2047590;86;28655;-60
2021/10/28 08:47:10;;;;;;;51.77;36.68;;;;;;;11.81;67.39;101161.63;2060229;86;31023;-61
2021/10/28 08:50:22;;;;;;;52.70;35.98;;;;;;;11.86;66.99;101160.94;2060871;84;33707;-61
2021/10/28 09:00:24;;;;;;;55.48;33.60;;;;;;;12.05;66.93;101149.95;2070829;85;30702;-61
2021/10/28 09:27:04;;;;;;;48.33;32.42;;;;;;;12.74;65.76;101135.32;2050980;84;30543;-64
2021/10/28 09:30:20;;;;;;;46.48;31.30;;;;;;;12.83;65.82;101129.96;2056776;85;27747;-59
2021/10/28 09:33:28;;;;;;;45.98;31.40;;;;;;;12.92;65.78;101134.94;2037473;85;30156;-62
2021/10/28 09:43:47;;;;;;;44.88;28.15;;;;;;;13.20;65.25;101133.63;2057093;85;30410;-63
2021/10/28 09:46:46;;;;;;;39.23;26.33;;;;;;;13.34;65.00;101130.30;2055552;85;27713;-63
2021/10/28 09:50:16;;;;;;;37.67;26.27;;;;;;;13.40;64.52;101129.13;2053818;85;29452;-63
2021/10/28 09:53:13;;;;;;;44.48;26.42;;;;;;;13.46;64.30;101116.77;2055358;84;31841;-62
2021/10/28 09:59:43;;;;;;;39.23;25.17;;;;;;;13.55;64.00;101113.61;2049708;85;30343;-63
2021/10/28 10:05:56;;;;;;;40.30;24.37;;;;;;;13.70;63.74;101099.88;2014813;86;28352;-63
2021/10/28 10:08:57;;;;;;;32.55;22.48;;;;;;;13.76;63.72;101098.69;2021264;86;31857;-63
2021/10/28 10:11:59;;;;;;;37.93;24.07;;;;;;;13.82;63.46;101101.05;2029556;86;33810;-63
2021/10/28 10:15:05;;;;;;;39.53;24.82;;;;;;;13.86;62.70;101098.61;2023409;86;29028;-63
2021/10/28 10:18:07;;;;;;;32.75;22.60;;;;;;;13.88;63.35;101087.28;2023154;86;28197;-63
2021/10/28 10:21:24;;;;;;;35.85;22.25;;;;;;;13.94;62.47;101088.79;2023281;86;28719;-63
2021/10/28 10:24:33;;;;;;;38.85;23.10;;;;;;;13.93;62.28;101083.89;2021967;86;31229;-63
2021/10/28 11:06:08;;;;;;;18.35;11.75;;;;;;;15.12;59.40;101038.03;2059552;84;30366;-60
2021/10/28 11:25:45;;;;;;;13.83;9.85;;;;;;;15.54;57.43;101020.33;1952867;91;27691;-63
2021/10/28 12:43:25;;;;;;;10.38;7.30;;;;;;;15.95;53.48;100929.16;2041663;86;30119;-62
2021/10/28 12:45:40;;;;;;;20.08;7.67;;;;;;;16.08;52.91;100936.03;2013318;88;30104;-61
2021/10/28 12:52:22;;;;;;;14.75;9.65;;;;;;;16.08;53.29;100935.14;2006657;88;29438;-59
2021/10/28 13:05:57;;;;;;;15.30;10.15;;;;;;;16.06;53.08;100926.26;2051029;85;27765;-61
2021/10/28 13:28:09;;;;;;;15.32;9.83;;;;;;;16.04;53.36;100928.22;2051419;86;31068;-60
2021/10/28 13:38:24;;;;;;;21.30;12.90;;;;;;;15.71;52.91;100891.49;2007700;87;27702;-60
2021/10/28 13:48:23;;;;;;;26.00;16.27;;;;;;;15.72;53.36;100908.09;1951771;90;34279;-60
2021/10/28 13:54:54;;;;;;;20.92;12.45;;;;;;;15.64;53.35;100908.06;1969822;90;28060;-60
2021/10/28 14:24:41;;;;;;;25.15;14.53;;;;;;;15.30;54.11;100889.86;1959220;89;30560;-62
2021/10/28 14:31:08;;;;;;;21.02;13.55;;;;;;;15.19;54.07;100889.64;1945171;91;28763;-61
2021/10/28 14:37:24;;;;;;;22.55;14.68;;;;;;;15.07;54.14;100882.25;1944866;91;34285;-61
2021/10/28 15:00:57;;;;;;;22.93;14.65;;;;;;;14.47;54.85;100875.78;1941988;91;28387;-64
2021/10/28 15:36:44;;;;;;;30.27;17.98;;;;;;;13.29;56.95;100855.16;1964269;90;28704;-63
2021/10/28 15:39:57;;;;;;;28.60;16.35;;;;;;;13.15;57.02;100850.03;1956971;89;31868;-61
2021/10/28 16:22:21;;;;;;;63.85;35.90;;;;;;;11.62;59.33;100838.08;2024835;87;27752;-61
2021/10/28 16:25:24;;;;;;;47.30;27.65;;;;;;;11.49;59.08;100836.44;2043638;86;29900;-62
2021/10/28 16:28:28;;;;;;;41.02;23.02;;;;;;;11.38;59.42;100832.89;2056284;86;32343;-64
2021/10/28 16:31:29;;;;;;;41.58;23.07;;;;;;;11.27;59.89;100831.13;2033845;87;33050;-64
2021/10/28 16:34:31;;;;;;;42.08;23.65;;;;;;;11.19;60.21;100825.25;2033944;87;30134;-62
2021/10/28 16:37:34;;;;;;;37.30;21.80;;;;;;;11.10;60.51;100829.20;2034049;87;27650;-61
2021/10/28 16:40:38;;;;;;;33.60;20.62;;;;;;;11.03;61.11;100832.63;2032532;87;28672;-62
2021/10/28 16:43:40;;;;;;;38.17;20.70;;;;;;;10.97;61.20;100826.66;2033837;87;31051;-60
2021/10/28 16:46:42;;;;;;;38.85;21.00;;;;;;;10.89;61.33;100817.59;2032801;87;34192;-61
2021/10/28 16:49:44;;;;;;;64.55;28.57;;;;;;;10.83;61.10;100812.48;2032401;86;30655;-61
2021/10/28 16:52:46;;;;;;;101.70;39.60;;;;;;;10.68;61.25;100812.20;2025093;87;27726;-60
2021/10/28 16:55:48;;;;;;;126.45;43.15;;;;;;;10.60;61.63;100820.56;2010020;87;30038;-63
2021/10/28 16:58:50;;;;;;;107.20;42.10;;;;;;;10.51;61.54;100816.91;2010033;88;33199;-61
2021/10/28 17:01:53;;;;;;;159.03;59.05;;;;;;;10.44;61.87;100822.98;2045821;86;33098;-60
2021/10/28 17:04:57;;;;;;;156.32;62.55;;;;;;;10.38;62.11;100825.01;2046285;85;30457;-59
2021/10/28 17:07:59;;;;;;;344.80;136.32;;;;;;;10.33;62.36;100814.48;2049742;85;27717;-60
2021/10/28 17:11:00;;;;;;;350.45;154.23;;;;;;;10.27;62.95;100812.94;2049991;86;28719;-61
2021/10/28 17:14:05;;;;;;;292.52;118.72;;;;;;;10.23;63.07;100819.34;2049079;85;31380;-60
2021/10/28 17:17:07;;;;;;;392.90;158.95;;;;;;;10.20;63.26;100811.42;2049410;86;33161;-60
2021/10/28 17:20:11;;;;;;;113.37;53.55;;;;;;;10.17;63.48;100818.27;2048226;86;30746;-61
2021/10/28 17:23:17;;;;;;;127.02;57.95;;;;;;;10.12;63.63;100820.23;2046108;86;28608;-60
2021/10/28 17:26:19;;;;;;;71.65;34.48;;;;;;;10.08;63.81;100818.61;2045064;86;28811;-60
2021/10/28 17:29:20;;;;;;;45.65;27.65;;;;;;;10.04;63.69;100816.53;2004893;88;31405;-61
2021/10/28 17:32:22;;;;;;;40.60;24.87;;;;;;;10.00;63.85;100818.46;2003652;87;34199;-60
2021/10/28 17:35:27;;;;;;;41.98;24.00;;;;;;;9.98;64.02;100813.63;2007261;88;29782;-59
2021/10/28 17:38:29;;;;;;;29.67;17.07;;;;;;;9.97;63.85;100813.22;2006210;88;33060;-59
2021/10/28 17:41:31;;;;;;;39.00;22.10;;;;;;;9.97;63.76;100813.67;1993020;89;29754;-61
2021/10/28 17:44:37;;;;;;;40.08;23.32;;;;;;;9.97;63.67;100813.22;1952059;91;31736;-63
2021/10/28 17:47:37;;;;;;;43.52;23.57;;;;;;;9.96;63.46;100803.89;1952039;90;33182;-59
2021/10/28 17:50:38;;;;;;;44.25;24.12;;;;;;;9.95;63.51;100812.41;1981829;89;30436;-60
2021/10/28 17:53:40;;;;;;;49.75;27.80;;;;;;;9.95;63.40;100809.73;1994001;87;27668;-59
2021/10/28 17:56:42;;;;;;;50.05;25.95;;;;;;;9.93;63.46;100811.59;2020934;88;29884;-60
2021/10/28 17:59:45;;;;;;;41.15;25.90;;;;;;;9.93;63.41;100813.41;2015033;86;32302;-60
2021/10/28 18:02:47;;;;;;;55.17;31.77;;;;;;;9.91;63.40;100815.27;2015612;88;33762;-60
2021/10/28 18:05:51;;;;;;;44.30;25.37;;;;;;;9.87;63.49;100811.36;2016834;86;30658;-59
2021/10/28 18:08:53;;;;;;;41.00;24.82;;;;;;;9.84;63.45;100814.16;2017863;86;27643;-62
2021/10/28 18:11:56;;;;;;;50.75;26.97;;;;;;;9.81;63.37;100812.92;2030612;87;28660;-60
2021/10/28 18:14:59;;;;;;;43.10;25.37;;;;;;;9.76;63.35;100817.60;1982411;89;31118;-60
2021/10/28 18:18:02;;;;;;;42.73;27.87;;;;;;;9.70;63.29;100817.34;2055937;86;34183;-60
2021/10/28 18:21:05;;;;;;;43.63;26.62;;;;;;;9.63;63.25;100809.61;2055908;86;30533;-62
2021/10/28 18:24:07;;;;;;;43.65;27.30;;;;;;;9.56;63.32;100807.18;2067164;86;27714;-60
2021/10/28 18:27:10;;;;;;;52.13;30.43;;;;;;;9.50;63.28;100806.06;2070880;86;29476;-60
2021/10/28 18:30:16;;;;;;;49.55;30.45;;;;;;;9.43;63.46;100812.58;2070903;86;31856;-60
2021/10/28 18:33:18;;;;;;;47.30;28.67;;;;;;;9.34;63.46;100798.19;2065796;84;33032;-60
2021/10/28 18:36:20;;;;;;;55.40;33.73;;;;;;;9.25;63.49;100797.61;2062035;84;29997;-62
2021/10/28 18:39:24;;;;;;;48.68;30.92;;;;;;;9.18;63.64;100796.55;2065704;86;28166;-61
2021/10/28 18:42:26;;;;;;;50.00;31.42;;;;;;;9.09;63.73;100794.61;2059676;84;29896;-59
2021/10/28 18:45:32;;;;;;;49.15;31.15;;;;;;;9.01;63.74;100798.03;2055873;86;31882;-59
2021/10/28 18:48:35;;;;;;;47.80;28.40;;;;;;;8.92;63.88;100789.87;2057796;86;32964;-60
2021/10/28 18:51:38;;;;;;;48.63;29.70;;;;;;;8.86;64.12;100794.52;2057662;86;29393;-59
2021/10/28 18:54:40;;;;;;;47.83;29.42;;;;;;;8.78;64.01;100797.02;2054570;86;27757;-59
2021/10/28 18:57:42;;;;;;;53.78;30.25;;;;;;;8.71;64.07;100788.78;2049313;86;29096;-61
2021/10/28 19:00:46;;;;;;;53.68;29.98;;;;;;;8.65;64.31;100790.34;2052334;85;31059;-60
2021/10/28 19:03:52;;;;;;;55.35;30.52;;;;;;;8.59;64.24;100788.77;2052392;85;33190;-61
2021/10/28 19:06:53;;;;;;;47.30;30.05;;;;;;;8.54;64.42;100788.03;2056248;86;29379;-60
2021/10/28 19:09:56;;;;;;;52.53;29.07;;;;;;;8.51;64.33;100790.80;2056400;85;27765;-62
2021/10/28 19:12:58;;;;;;;47.00;29.60;;;;;;;8.45;64.43;100787.84;2053536;86;29483;-62
2021/10/28 19:16:00;;;;;;;54.70;30.50;;;;;;;8.41;64.39;100786.66;2049146;86;31397;-60
2021/10/28 19:19:03;;;;;;;51.28;32.17;;;;;;;8.35;64.32;100788.60;2049185;86;33678;-61
2021/10/28 19:22:05;;;;;;;60.00;35.60;;;;;;;8.28;64.40;100787.03;2049165;86;29361;-60
2021/10/28 19:25:09;;;;;;;75.08;44.30;;;;;;;8.22;64.69;100789.92;2062510;86;28013;-60
2021/10/28 19:28:12;;;;;;;61.58;35.95;;;;;;;8.17;64.64;100786.52;2054280;86;28673;-61
2021/10/28 19:31:24;;;;;;;61.30;33.85;;;;;;;8.10;64.54;100783.65;2051028;86;31104;-62
2021/10/28 19:34:23;;;;;;;79.85;46.40;;;;;;;8.02;64.63;100782.56;2010944;87;33347;-61
2021/10/28 19:47:14;;;;;;;54.45;33.75;;;;;;;7.79;64.91;100777.91;2050931;86;32352;-60
2021/10/28 19:50:16;;;;;;;59.15;34.50;;;;;;;7.71;65.06;100773.69;2051428;86;33810;-61
2021/10/28 19:53:18;;;;;;;55.85;32.20;;;;;;;7.66;65.17;100774.28;2050968;86;30169;-60
2021/10/28 19:56:21;;;;;;;57.40;34.27;;;;;;;7.62;65.20;100770.42;2065845;86;28176;-60
2021/10/28 19:59:27;;;;;;;54.00;34.88;;;;;;;7.58;65.29;100769.17;2068099;86;29580;-60
2021/10/28 20:02:39;;;;;;;56.33;35.75;;;;;;;7.55;65.30;100760.41;2031256;87;31048;-60
2021/10/28 20:15:27;;;;;;;107.17;70.25;;;;;;;7.41;65.52;100759.02;1973235;89;28954;-61
2021/10/28 20:21:40;;;;;;;54.90;35.90;;;;;;;7.33;65.48;100758.36;1980563;89;34333;-60
2021/10/28 20:24:45;;;;;;;52.73;32.90;;;;;;;7.29;65.66;100760.69;1980691;89;30106;-61
2021/10/28 20:27:49;;;;;;;61.42;35.68;;;;;;;7.26;65.88;100767.47;1980992;87;27810;-61
2021/10/28 20:31:00;;;;;;;59.77;33.45;;;;;;;7.23;65.86;100770.20;1981554;89;29075;-61
2021/10/28 20:34:03;;;;;;;60.28;34.85;;;;;;;7.20;65.75;100770.29;1979370;89;31435;-61
2021/10/28 20:37:06;;;;;;;53.87;33.73;;;;;;;7.17;66.14;100768.59;1980571;89;34169;-63
2021/10/28 20:40:11;;;;;;;63.78;38.48;;;;;;;7.14;66.15;100764.20;1981379;89;30704;-59
2021/10/28 20:43:13;;;;;;;62.73;37.33;;;;;;;7.12;66.17;100764.70;1981046;89;27812;-58
2021/10/28 20:46:23;;;;;;;61.33;37.40;;;;;;;7.10;66.16;100765.67;2000481;88;28754;-61
2021/10/28 20:49:24;;;;;;;61.08;36.17;;;;;;;7.08;66.32;100767.50;2013971;88;32499;-59
2021/10/28 20:52:26;;;;;;;59.55;36.77;;;;;;;7.05;66.45;100761.81;2014894;88;33054;-61
2021/10/28 20:55:29;;;;;;;66.77;36.90;;;;;;;7.03;66.31;100769.44;2015255;88;30498;-61
2021/10/28 20:58:33;;;;;;;61.95;35.43;;;;;;;7.00;66.43;100766.37;2020556;86;27707;-60
2021/10/28 21:01:35;;;;;;;56.45;35.00;;;;;;;6.98;66.52;100766.88;2019929;88;29542;-62
2021/10/28 21:04:37;;;;;;;63.40;38.17;;;;;;;6.96;66.51;100760.27;1976003;88;32289;-61
2021/10/28 21:07:44;;;;;;;56.53;35.55;;;;;;;6.92;66.54;100761.73;2017003;88;32982;-61
2021/10/28 21:10:46;;;;;;;68.60;38.10;;;;;;;6.88;66.52;100760.06;2017033;88;29329;-62
2021/10/28 21:13:48;;;;;;;62.45;37.30;;;;;;;6.85;66.49;100761.03;2017057;88;27820;-61
2021/10/28 21:16:50;;;;;;;61.45;36.55;;;;;;;6.80;66.58;100755.80;2017215;88;29442;-62
2021/10/28 21:19:52;;;;;;;63.98;37.85;;;;;;;6.76;66.56;100751.94;2017287;88;32195;-62
2021/10/28 21:22:55;;;;;;;59.85;37.67;;;;;;;6.71;66.58;100755.16;1991603;89;33920;-62
2021/10/28 21:25:57;;;;;;;63.40;38.80;;;;;;;6.64;66.65;100744.70;2012131;88;30183;-61
2021/10/28 21:28:59;;;;;;;63.80;38.00;;;;;;;6.58;66.83;100738.19;2012632;88;27793;-62
2021/10/28 21:32:01;;;;;;;72.12;42.67;;;;;;;6.53;66.87;100739.64;2012540;88;28720;-60
2021/10/28 21:35:11;;;;;;;63.85;40.63;;;;;;;6.50;66.84;100738.39;1981087;89;31890;-61
2021/10/28 21:38:14;;;;;;;68.45;41.02;;;;;;;6.45;66.86;100742.98;2023828;87;32975;-62
2021/10/28 21:41:18;;;;;;;66.67;40.53;;;;;;;6.39;67.04;100734.66;2024506;87;30313;-61
2021/10/28 21:44:20;;;;;;;64.45;38.67;;;;;;;6.36;66.95;100741.86;2018425;88;27687;-61
2021/10/28 21:47:25;;;;;;;61.90;36.65;;;;;;;6.32;67.11;100736.19;2018487;86;29870;-61
2021/10/28 21:50:27;;;;;;;62.88;36.68;;;;;;;6.28;67.14;100739.39;2018701;88;31094;-60
2021/10/28 21:53:34;;;;;;;67.03;38.90;;;;;;;6.26;67.15;100735.03;2018155;87;33893;-61
2021/10/28 21:56:40;;;;;;;71.57;39.50;;;;;;;6.21;67.14;100741.33;2009712;88;30482;-61
2021/10/28 22:26:13;;;;;;;52.40;34.00;;;;;;;5.96;67.29;100722.87;1979229;89;33383;-60
2021/10/28 22:29:17;;;;;;;60.52;34.92;;;;;;;5.93;67.25;100719.36;1990796;89;30555;-62
2021/10/28 22:32:19;;;;;;;62.70;35.63;;;;;;;5.89;67.23;100718.12;1991033;89;27768;-59
2021/10/28 22:35:34;;;;;;;56.73;33.25;;;;;;;5.86;67.31;100712.90;1980674;89;29078;-61
2021/10/28 22:38:32;;;;;;;58.73;33.92;;;;;;;5.83;67.25;100709.84;1958310;90;31077;-62
2021/10/28 22:41:32;;;;;;;58.15;33.78;;;;;;;5.82;67.29;100710.74;1959395;89;34187;-60
2021/10/28 22:44:34;;;;;;;57.98;32.83;;;;;;;5.80;67.31;100716.55;1959951;89;29363;-62
2021/10/28 22:47:36;;;;;;;53.17;32.20;;;;;;;5.77;67.29;100704.21;1989589;89;27733;-58